createdAt,value
2023-03-23T15:57:53.463Z,79.08
2023-03-23T16:03:07.017Z,78.96
2023-03-23T16:08:12.089Z,79.03
2023-03-23T16:13:15.112Z,79.00
2023-03-23T16:18:21.856Z,79.10
2023-03-23T16:23:24.721Z,79.20
2023-03-23T16:28:27.662Z,79.13
2023-03-23T16:33:30.908Z,79.14
2023-03-23T16:38:33.826Z,79.14
2023-03-23T16:43:53.066Z,79.17
2023-03-23T16:48:56.577Z,79.15
2023-03-23T16:53:59.518Z,79.30
2023-03-23T16:59:02.362Z,79.28
2023-03-23T17:04:05.548Z,79.35
2023-03-23T17:09:08.446Z,79.29
2023-03-23T17:14:11.690Z,79.24
2023-03-23T17:19:14.768Z,79.32
2023-03-23T17:24:18.813Z,79.38
2023-03-23T17:29:22.705Z,79.42
2023-03-23T17:34:25.718Z,79.51
2023-03-23T17:39:28.675Z,79.57
2023-03-23T17:44:31.509Z,79.65
2023-03-23T17:49:34.523Z,79.68
2023-03-23T17:54:37.518Z,79.72
2023-03-23T17:59:40.515Z,79.82
2023-03-23T18:04:43.347Z,79.96
2023-03-23T18:09:50.496Z,80.00
2023-03-23T18:14:58.644Z,80.18
2023-03-23T18:20:01.921Z,80.11
2023-03-23T18:25:05.700Z,80.19
2023-03-23T18:30:10.565Z,80.26
2023-03-23T18:35:13.654Z,80.28
2023-03-23T18:40:17.684Z,80.41
2023-03-23T18:45:20.680Z,80.39
2023-03-23T18:50:23.692Z,80.46
2023-03-23T18:55:26.770Z,80.39
2023-03-23T19:00:33.964Z,80.49
2023-03-23T19:05:40.545Z,80.46
2023-03-23T19:10:43.826Z,80.50
2023-03-23T19:15:47.130Z,80.47
2023-03-23T19:21:13.519Z,80.65
2023-03-23T19:26:26.928Z,80.50
2023-03-23T19:31:30.687Z,80.54
2023-03-23T19:36:33.680Z,80.60
2023-03-23T19:41:37.842Z,80.14
2023-03-23T19:46:41.225Z,80.25
2023-03-23T19:51:44.137Z,80.14
2023-03-23T19:56:47.705Z,79.61
2023-03-23T20:01:54.839Z,78.55
2023-03-23T20:06:59.085Z,78.40
2023-03-23T20:12:02.063Z,78.61
2023-03-23T20:17:05.689Z,78.65
2023-03-23T20:22:10.235Z,78.72
2023-03-23T20:27:15.526Z,78.72
2023-03-23T20:32:19.230Z,79.29
2023-03-23T20:37:24.034Z,80.19
2023-03-23T20:42:29.618Z,81.77
2023-03-23T20:47:32.858Z,83.57
2023-03-23T20:52:36.956Z,84.75
2023-03-23T20:57:40.335Z,85.25
2023-03-23T21:02:43.372Z,84.91
2023-03-23T21:07:46.879Z,84.43
2023-03-23T21:12:49.937Z,84.41
2023-03-23T21:17:53.082Z,84.49
2023-03-23T21:22:56.346Z,84.31
2023-03-23T21:27:59.423Z,84.21
2023-03-23T21:33:02.585Z,84.09
2023-03-23T21:38:05.787Z,84.13
2023-03-23T21:43:14.919Z,84.14
2023-03-23T21:48:17.811Z,84.14
2023-03-23T21:53:22.667Z,84.33
2023-03-23T21:58:29.185Z,84.53
2023-03-23T22:03:35.408Z,84.93
2023-03-23T22:08:41.270Z,85.12
2023-03-23T22:13:44.626Z,85.07
2023-03-23T22:18:49.435Z,84.92
2023-03-23T22:23:56.030Z,84.72
2023-03-23T22:29:00.880Z,84.57
2023-03-23T22:34:04.482Z,84.99
2023-03-23T22:39:09.034Z,85.41
2023-03-23T22:44:18.338Z,85.60
2023-03-23T22:49:21.400Z,86.05
2023-03-23T22:54:24.624Z,86.23
2023-03-23T22:59:27.761Z,86.64
2023-03-23T23:04:31.245Z,86.96
2023-03-23T23:09:34.143Z,87.14
2023-03-23T23:14:37.639Z,86.98
2023-03-23T23:19:40.728Z,86.99
2023-03-23T23:24:46.242Z,87.24
2023-03-23T23:29:49.236Z,87.32
2023-03-23T23:34:52.999Z,87.57
2023-03-23T23:39:56.056Z,87.39
2023-03-23T23:44:59.051Z,87.65
2023-03-23T23:50:02.475Z,87.76
2023-03-23T23:55:08.097Z,87.44
